Time,TemperatureF,DewpointF,PressureIn,WindDirection,WindDirectionDegrees,WindSpeedMPH,WindSpeedGustMPH,Humidity,HourlyPrecipIn,Conditions,Clouds,dailyrainin,SoftwareType,DateUTC
2013-02-27 00:04:00,41.7,0.0,30.00,NW,323,7.0,9.0,17,0.00,,,0.00,weatherlink.com 1.10,2013-02-27 07:04:00,
2013-02-27 00:51:00,40.8,-3.0,30.01,NW,313,9.0,18.0,15,0.00,,,0.00,weatherlink.com 1.10,2013-02-27 07:51:00,
2013-02-27 01:40:00,39.1,-5.0,30.03,NNW,335,12.0,17.0,15,0.00,,,0.00,weatherlink.com 1.10,2013-02-27 08:40:00,
2013-02-27 02:27:00,38.0,-3.0,30.05,NW,316,10.0,22.0,17,0.00,,,0.00,weatherlink.com 1.10,2013-02-27 09:27:00,
2013-02-27 03:14:00,36.9,-2.0,30.07,WNW,302,4.0,16.0,19,0.00,,,0.00,weatherlink.com 1.10,2013-02-27 10:14:00,
2013-02-27 04:00:00,35.7,0.0,30.09,NW,313,5.0,10.0,21,0.00,,,0.00,weatherlink.com 1.10,2013-02-27 11:00:00,
2013-02-27 04:47:00,35.2,-1.0,30.12,NNE,13,5.0,7.0,21,0.00,,,0.00,weatherlink.com 1.10,2013-02-27 11:47:00,
2013-02-27 05:35:00,33.8,1.0,30.14,WNW,294,6.0,8.0,24,0.00,,,0.00,weatherlink.com 1.10,2013-02-27 12:35:00,
2013-02-27 06:23:00,33.0,1.0,30.15,NW,317,4.0,8.0,25,0.00,,,0.00,weatherlink.com 1.10,2013-02-27 13:23:00,
2013-02-27 07:11:00,34.6,1.0,30.17,NW,318,8.0,11.0,24,0.00,,,0.00,weatherlink.com 1.10,2013-02-27 14:11:00,
2013-02-27 07:59:00,36.1,2.0,30.20,NNE,24,4.0,7.0,23,0.00,,,0.00,weatherlink.com 1.10,2013-02-27 14:59:00,
2013-02-27 08:47:00,38.8,2.0,30.23,NW,313,2.0,7.0,21,0.00,,,0.00,weatherlink.com 1.10,2013-02-27 15:47:00,
2013-02-27 09:34:00,41.8,2.0,30.24,NNE,29,7.0,11.0,19,0.00,,,0.00,weatherlink.com 1.10,2013-02-27 16:34:00,
2013-02-27 10:21:00,45.3,2.0,30.23,NNE,33,4.0,9.0,16,0.00,,,0.00,weatherlink.com 1.10,2013-02-27 17:21:00,
2013-02-27 11:10:00,47.4,2.0,30.23,NW,313,1.0,7.0,15,0.00,,,0.00,weatherlink.com 1.10,2013-02-27 18:10:00,
2013-02-27 11:58:00,50.8,5.0,30.21,NNE,28,0.0,7.0,15,0.00,,,0.00,weatherlink.com 1.10,2013-02-27 18:58:00,
2013-02-27 12:45:00,53.3,4.0,30.18,ESE,108,4.0,8.0,13,0.00,,,0.00,weatherlink.com 1.10,2013-02-27 19:45:00,
2013-02-27 13:33:00,54.1,-1.0,30.15,NE,53,3.0,6.0,10,0.00,,,0.00,weatherlink.com 1.10,2013-02-27 20:33:00,
2013-02-27 14:20:00,55.4,-3.0,30.15,NE,51,4.0,7.0,9,0.00,,,0.00,weatherlink.com 1.10,2013-02-27 21:20:00,
2013-02-27 15:08:00,56.3,-2.0,30.13,ENE,69,4.0,6.0,9,0.00,,,0.00,weatherlink.com 1.10,2013-02-27 22:08:00,
2013-02-27 15:56:00,54.3,-1.0,30.12,South,171,5.0,9.0,10,0.00,,,0.00,weatherlink.com 1.10,2013-02-27 22:56:00,
2013-02-27 16:43:00,51.6,-1.0,30.13,ENE,74,2.0,5.0,11,0.00,,,0.00,weatherlink.com 1.10,2013-02-27 23:43:00,
2013-02-27 17:30:00,50.5,0.0,30.13,ENE,69,0.0,4.0,12,0.00,,,0.00,weatherlink.com 1.10,2013-02-28 00:30:00,
2013-02-27 18:17:00,48.5,1.0,30.14,East,100,0.0,0.0,14,0.00,,,0.00,weatherlink.com 1.10,2013-02-28 01:17:00,
2013-02-27 19:05:00,45.9,5.0,30.15,East,100,0.0,1.0,18,0.00,,,0.00,weatherlink.com 1.10,2013-02-28 02:05:00,
2013-02-27 19:54:00,43.8,5.0,30.17,SSE,153,1.0,2.0,20,0.00,,,0.00,weatherlink.com 1.10,2013-02-28 02:54:00,
2013-02-27 20:42:00,42.7,6.0,30.18,South,169,0.0,2.0,22,0.00,,,0.00,weatherlink.com 1.10,2013-02-28 03:42:00,
2013-02-27 21:32:00,41.0,9.0,30.21,NNW,339,0.0,1.0,26,0.00,,,0.00,weatherlink.com 1.10,2013-02-28 04:32:00,
2013-02-27 22:21:00,40.2,10.0,30.23,South,171,3.0,4.0,29,0.00,,,0.00,weatherlink.com 1.10,2013-02-28 05:21:00,
2013-02-27 23:08:00,40.2,11.0,30.23,SSW,209,1.0,4.0,30,0.00,,,0.00,weatherlink.com 1.10,2013-02-28 06:08:00,
2013-02-27 23:56:00,40.5,11.0,30.23,SSW,205,5.0,7.0,30,0.00,,,0.00,weatherlink.com 1.10,2013-02-28 06:56:00,